Wetterdaten: Woche 30.10.23 - 05.11.23 (KW44)
Datum Zeit Temp. Aussen Temp. o. S. Temp +5cm Feuchte Auss Luftdruck Regen Sonnenschein Regendauer Solar Windben Empfang
30.10.2023 00:00 12,4 C 11,5 C 8,0 C 85 % 1000,2 hPa 0,0 l/m 0,00 h 0,00 h 0 W/m 12,3 km/h (3 Bft) 95,61 %
30.10.2023 01:00 11,7 C 10,7 C 7,3 C 88 % 1000,5 hPa 0,0 l/m 0,00 h 0,00 h 0 W/m 7,6 km/h (2 Bft) 97,58 %
30.10.2023 02:00 12,0 C 11,2 C 7,8 C 89 % 1000,9 hPa 0,0 l/m 0,00 h 0,00 h 0 W/m 12,8 km/h (3 Bft) 95,89 %
30.10.2023 03:00 12,2 C 11,5 C 7,8 C 88 % 1001,0 hPa 0,0 l/m 0,00 h 0,00 h 0 W/m 12,8 km/h (3 Bft) 96,37 %
30.10.2023 04:00 11,8 C 10,8 C 7,4 C 89 % 1001,0 hPa 0,0 l/m 0,00 h 0,00 h 0 W/m 4,6 km/h (1 Bft) 97,85 %
30.10.2023 05:00 11,1 C 10,1 C 6,9 C 90 % 1001,2 hPa 0,0 l/m 0,00 h 0,00 h 0 W/m 6,0 km/h (2 Bft) 96,06 %
30.10.2023 06:00 10,7 C 10,0 C 6,7 C 92 % 1001,2 hPa 0,0 l/m 0,00 h 0,00 h 0 W/m 6,7 km/h (2 Bft) 95,68 %
30.10.2023 07:00 10,6 C 9,9 C 6,7 C 93 % 1001,2 hPa 0,0 l/m 0,00 h 0,00 h 5 W/m 6,7 km/h (2 Bft) 99,64 %
30.10.2023 08:00 10,6 C 10,1 C 6,8 C 94 % 1001,4 hPa 0,0 l/m 0,00 h 0,00 h 28 W/m 7,8 km/h (2 Bft) 96,05 %
30.10.2023 09:00 11,6 C 11,8 C 8,1 C 94 % 1001,6 hPa 0,0 l/m 0,00 h 0,00 h 97 W/m 8,7 km/h (2 Bft) 98,26 %
30.10.2023 10:00 12,8 C 12,9 C 9,1 C 91 % 1001,7 hPa 0,0 l/m 0,00 h 0,00 h 126 W/m 9,0 km/h (2 Bft) 98,16 %
30.10.2023 11:00 13,8 C 14,1 C 10,0 C 88 % 1001,3 hPa 0,0 l/m 0,20 h 0,00 h 183 W/m 7,6 km/h (2 Bft) 95,52 %
30.10.2023 12:00 14,7 C 14,4 C 10,7 C 84 % 1000,5 hPa 0,0 l/m 0,07 h 0,00 h 117 W/m 7,3 km/h (2 Bft) 98,01 %
30.10.2023 13:00 14,7 C 14,0 C 10,2 C 85 % 999,4 hPa 0,0 l/m 0,00 h 0,00 h 78 W/m 0,0 km/h (0 Bft) 98,93 %
30.10.2023 14:00 14,6 C 14,2 C 10,2 C 87 % 998,2 hPa 0,0 l/m 0,00 h 0,00 h 69 W/m 0,0 km/h (0 Bft) 94,18 %
30.10.2023 15:00 14,6 C 13,8 C 9,8 C 88 % 997,6 hPa 0,0 l/m 0,00 h 0,20 h 31 W/m 0,0 km/h (0 Bft) 98,14 %
30.10.2023 16:00 14,2 C 13,1 C 9,3 C 90 % 997,0 hPa 0,2 l/m 0,00 h 0,60 h 13 W/m 4,2 km/h (1 Bft) 97,15 %
30.10.2023 17:00 13,4 C 12,2 C 8,3 C 93 % 996,7 hPa 1,4 l/m 0,00 h 1,00 h 0 W/m 7,4 km/h (2 Bft) 96,89 %
30.10.2023 18:00 12,9 C 11,7 C 8,3 C 96 % 996,7 hPa 1,2 l/m 0,00 h 1,00 h 0 W/m 2,1 km/h (1 Bft) 98,23 %
30.10.2023 19:00 12,7 C 11,7 C 8,3 C 97 % 996,3 hPa 1,0 l/m 0,00 h 0,77 h 0 W/m 0,0 km/h (0 Bft) 97,08 %
30.10.2023 20:00 12,6 C 11,7 C 8,5 C 98 % 995,9 hPa 0,0 l/m 0,00 h 0,00 h 0 W/m 0,0 km/h (0 Bft) 96,23 %
30.10.2023 21:00 12,7 C 11,7 C 8,9 C 98 % 995,8 hPa 0,2 l/m 0,00 h 0,10 h 0 W/m 1,2 km/h (1 Bft) 99,43 %
30.10.2023 22:00 12,7 C 11,7 C 8,9 C 99 % 995,2 hPa 0,2 l/m 0,00 h 0,30 h 0 W/m 1,6 km/h (1 Bft) 95,30 %
30.10.2023 23:00 12,6 C 11,9 C 8,9 C 99 % 994,9 hPa 0,2 l/m 0,00 h 0,20 h 0 W/m 11,3 km/h (2 Bft) 97,78 %
31.10.2023 00:00 11,6 C 11,1 C 7,7 C 98 % 995,8 hPa 0,0 l/m 0,00 h 0,00 h 0 W/m 25,6 km/h (4 Bft) 98,51 %
31.10.2023 01:00 10,8 C 10,2 C 6,8 C 95 % 997,2 hPa 0,0 l/m 0,00 h 0,00 h 0 W/m 19,1 km/h (3 Bft) 94,83 %
31.10.2023 02:00 10,6 C 9,9 C 6,7 C 95 % 998,1 hPa 0,0 l/m 0,00 h 0,13 h 0 W/m 14,0 km/h (3 Bft) 97,84 %
31.10.2023 03:00 10,4 C 10,0 C 6,7 C 96 % 998,2 hPa 0,2 l/m 0,00 h 0,07 h 0 W/m 15,0 km/h (3 Bft) 95,09 %
31.10.2023 04:00 10,4 C 10,0 C 6,7 C 96 % 998,5 hPa 0,0 l/m 0,00 h 0,03 h 0 W/m 14,2 km/h (3 Bft) 99,07 %
31.10.2023 05:00 10,4 C 10,0 C 6,7 C 97 % 999,1 hPa 0,0 l/m 0,00 h 0,30 h 0 W/m 13,5 km/h (3 Bft) 96,23 %
31.10.2023 06:00 10,3 C 9,5 C 6,7 C 97 % 999,9 hPa 0,6 l/m 0,00 h 0,20 h 0 W/m 10,2 km/h (2 Bft) 96,43 %
31.10.2023 07:00 10,2 C 9,4 C 6,7 C 97 % 1000,6 hPa 0,0 l/m 0,00 h 0,10 h 8 W/m 10,7 km/h (2 Bft) 98,22 %
31.10.2023 08:00 10,1 C 9,5 C 6,7 C 98 % 1001,2 hPa 0,0 l/m 0,00 h 0,00 h 28 W/m 11,2 km/h (2 Bft) 95,05 %
31.10.2023 09:00 10,3 C 10,2 C 7,0 C 97 % 1001,7 hPa 0,0 l/m 0,00 h 0,00 h 72 W/m 11,5 km/h (2 Bft) 98,91 %
31.10.2023 10:00 10,7 C 10,8 C 7,4 C 96 % 1002,5 hPa 0,0 l/m 0,03 h 0,00 h 103 W/m 16,3 km/h (3 Bft) 97,86 %
31.10.2023 11:00 12,0 C 12,3 C 8,9 C 92 % 1003,4 hPa 0,0 l/m 0,00 h 0,00 h 161 W/m 18,0 km/h (3 Bft) 96,66 %
31.10.2023 12:00 12,8 C 12,7 C 9,3 C 86 % 1003,7 hPa 0,0 l/m 0,00 h 0,00 h 131 W/m 16,5 km/h (3 Bft) 98,67 %
31.10.2023 13:00 12,8 C 12,6 C 9,2 C 86 % 1004,0 hPa 0,0 l/m 0,40 h 0,00 h 188 W/m 17,9 km/h (3 Bft) 96,55 %
31.10.2023 14:00 13,3 C 12,9 C 9,4 C 85 % 1004,0 hPa 0,0 l/m 0,67 h 0,00 h 229 W/m 12,7 km/h (3 Bft) 97,73 %
31.10.2023 15:00 13,3 C 12,8 C 9,2 C 83 % 1004,1 hPa 0,0 l/m 0,28 h 0,00 h 85 W/m 12,6 km/h (3 Bft) 98,44 %
31.10.2023 16:00 12,9 C 12,1 C 8,5 C 85 % 1004,7 hPa 0,6 l/m 0,00 h 0,37 h 25 W/m 10,0 km/h (2 Bft) 96,16 %
31.10.2023 17:00 11,7 C 10,6 C 7,2 C 93 % 1005,2 hPa 0,4 l/m 0,00 h 0,48 h 0 W/m 9,3 km/h (2 Bft) 98,46 %
31.10.2023 18:00 11,2 C 10,6 C 7,2 C 96 % 1005,7 hPa 0,2 l/m 0,00 h 0,07 h 0 W/m 5,4 km/h (1 Bft) 96,30 %
31.10.2023 19:00 11,2 C 10,6 C 7,2 C 97 % 1006,2 hPa 0,0 l/m 0,00 h 0,03 h 0 W/m 6,0 km/h (2 Bft) 97,21 %
31.10.2023 20:00 11,1 C 10,6 C 7,2 C 97 % 1006,1 hPa 0,0 l/m 0,00 h 0,00 h 0 W/m 10,3 km/h (2 Bft) 97,53 %
31.10.2023 21:00 11,1 C 10,6 C 7,2 C 97 % 1006,1 hPa 0,0 l/m 0,00 h 0,00 h 0 W/m 14,3 km/h (3 Bft) 98,59 %
31.10.2023 22:00 11,3 C 10,7 C 7,2 C 97 % 1006,1 hPa 0,0 l/m 0,00 h 0,00 h 0 W/m 17,1 km/h (3 Bft) 96,62 %
31.10.2023 23:00 11,4 C 10,8 C 7,2 C 96 % 1006,1 hPa 0,2 l/m 0,00 h 0,10 h 0 W/m 14,0 km/h (3 Bft) 97,63 %
01.11.2023 00:00 11,5 C 10,7 C 7,2 C 96 % 1005,9 hPa 0,0 l/m 0,00 h 0,10 h 0 W/m 13,6 km/h (3 Bft) 98,19 %
01.11.2023 01:00 11,6 C 11,0 C 7,3 C 96 % 1005,8 hPa 0,2 l/m 0,00 h 0,37 h 0 W/m 11,1 km/h (2 Bft) 96,24 %
01.11.2023 02:00 11,4 C 10,6 C 7,2 C 96 % 1005,0 hPa 0,0 l/m 0,00 h 0,03 h 0 W/m 3,9 km/h (1 Bft) 96,73 %
01.11.2023 03:00 11,2 C 10,6 C 7,2 C 96 % 1004,3 hPa 0,8 l/m 0,00 h 0,97 h 0 W/m 4,1 km/h (1 Bft) 97,84 %
01.11.2023 04:00 11,0 C 10,0 C 7,2 C 97 % 1003,6 hPa 1,0 l/m 0,00 h 0,58 h 0 W/m 8,5 km/h (2 Bft) 97,64 %
01.11.2023 05:00 11,1 C 10,3 C 7,6 C 98 % 1003,2 hPa 1,8 l/m 0,00 h 1,00 h 0 W/m 10,6 km/h (2 Bft) 97,22 %
01.11.2023 06:00 11,5 C 10,6 C 7,8 C 99 % 1002,8 hPa 0,2 l/m 0,00 h 0,10 h 0 W/m 8,8 km/h (2 Bft) 97,99 %
01.11.2023 07:00 11,4 C 10,6 C 7,8 C 99 % 1002,8 hPa 0,0 l/m 0,00 h 0,00 h 9 W/m 9,3 km/h (2 Bft) 96,64 %
01.11.2023 08:00 11,4 C 11,2 C 8,0 C 99 % 1002,9 hPa 0,0 l/m 0,00 h 0,00 h 35 W/m 5,3 km/h (1 Bft) 97,48 %
01.11.2023 09:00 12,0 C 12,1 C 8,6 C 99 % 1002,7 hPa 0,0 l/m 0,00 h 0,00 h 90 W/m 6,4 km/h (2 Bft) 97,12 %
01.11.2023 10:00 12,6 C 12,7 C 8,9 C 98 % 1002,6 hPa 0,0 l/m 0,00 h 0,00 h 96 W/m 9,0 km/h (2 Bft) 98,50 %
01.11.2023 11:00 13,6 C 13,9 C 9,3 C 93 % 1002,1 hPa 0,0 l/m 0,00 h 0,00 h 141 W/m 11,2 km/h (2 Bft) 95,54 %
01.11.2023 12:00 14,4 C 14,4 C 9,0 C 87 % 1001,1 hPa 0,0 l/m 0,00 h 0,00 h 153 W/m 15,9 km/h (3 Bft) 98,78 %
01.11.2023 13:00 14,7 C 14,4 C 9,6 C 84 % 1000,2 hPa 0,0 l/m 0,00 h 0,00 h 132 W/m 15,4 km/h (3 Bft) 95,25 %
01.11.2023 14:00 14,4 C 13,9 C 10,4 C 85 % 999,3 hPa 0,0 l/m 0,00 h 0,00 h 88 W/m 17,2 km/h (3 Bft) 97,57 %
01.11.2023 15:00 13,8 C 13,1 C 9,7 C 85 % 998,6 hPa 0,0 l/m 0,00 h 0,00 h 36 W/m 19,3 km/h (3 Bft) 97,85 %
01.11.2023 16:00 13,5 C 12,8 C 9,3 C 86 % 998,0 hPa 0,0 l/m 0,00 h 0,07 h 10 W/m 19,6 km/h (3 Bft) 95,19 %
01.11.2023 17:00 13,1 C 12,3 C 7,8 C 88 % 997,7 hPa 0,2 l/m 0,00 h 0,33 h 0 W/m 19,9 km/h (4 Bft) 95,91 %
01.11.2023 18:00 13,3 C 12,5 C 8,2 C 83 % 998,1 hPa 0,0 l/m 0,00 h 0,03 h 0 W/m 25,3 km/h (4 Bft) 98,74 %
01.11.2023 19:00 12,5 C 11,5 C 8,1 C 84 % 998,0 hPa 0,0 l/m 0,00 h 0,00 h 0 W/m 21,2 km/h (4 Bft) 95,51 %
01.11.2023 20:00 11,7 C 10,8 C 7,7 C 87 % 997,6 hPa 0,0 l/m 0,00 h 0,00 h 0 W/m 27,3 km/h (4 Bft) 99,64 %
01.11.2023 21:00 11,5 C 10,6 C 7,2 C 87 % 997,3 hPa 0,0 l/m 0,00 h 0,00 h 0 W/m 19,0 km/h (3 Bft) 99,85 %
01.11.2023 22:00 11,4 C 10,6 C 7,2 C 87 % 996,5 hPa 0,0 l/m 0,00 h 0,00 h 0 W/m 15,0 km/h (3 Bft) 97,95 %
01.11.2023 23:00 10,7 C 9,7 C 6,6 C 88 % 995,6 hPa 0,0 l/m 0,00 h 0,00 h 0 W/m 8,8 km/h (2 Bft) 99,64 %
02.11.2023 00:00 10,0 C 9,2 C 6,1 C 91 % 994,4 hPa 0,0 l/m 0,00 h 0,00 h 0 W/m 13,7 km/h (3 Bft) 99,27 %
02.11.2023 01:00 10,1 C 9,6 C 6,5 C 92 % 993,1 hPa 0,0 l/m 0,00 h 0,00 h 0 W/m 18,0 km/h (3 Bft) 99,42 %
02.11.2023 02:00 10,7 C 10,2 C 7,0 C 90 % 991,3 hPa 0,0 l/m 0,00 h 0,00 h 0 W/m 22,8 km/h (4 Bft) 97,30 %
02.11.2023 03:00 11,1 C 10,6 C 7,2 C 87 % 989,3 hPa 0,0 l/m 0,00 h 0,00 h 0 W/m 19,6 km/h (3 Bft) 99,78 %
02.11.2023 04:00 11,3 C 10,6 C 7,2 C 87 % 986,9 hPa 0,0 l/m 0,00 h 0,08 h 0 W/m 27,3 km/h (4 Bft) 98,47 %
02.11.2023 05:00 11,4 C 10,7 C 7,2 C 85 % 983,5 hPa 0,0 l/m 0,00 h 0,08 h 0 W/m 35,1 km/h (5 Bft) 99,78 %
02.11.2023 06:00 11,6 C 11,1 C 7,2 C 83 % 980,8 hPa 0,0 l/m 0,00 h 0,00 h 0 W/m 36,7 km/h (5 Bft) 99,20 %
02.11.2023 07:00 11,8 C 11,1 C 7,6 C 84 % 981,0 hPa 0,0 l/m 0,00 h 0,03 h 5 W/m 29,6 km/h (5 Bft) 97,81 %
02.11.2023 08:00 11,6 C 10,9 C 7,3 C 88 % 980,2 hPa 0,0 l/m 0,00 h 0,07 h 13 W/m 22,7 km/h (4 Bft) 96,23 %
02.11.2023 09:00 12,1 C 11,9 C 7,9 C 87 % 979,1 hPa 0,0 l/m 0,17 h 0,00 h 64 W/m 26,5 km/h (4 Bft) 98,68 %
02.11.2023 10:00 12,6 C 12,3 C 8,4 C 87 % 978,5 hPa 0,0 l/m 0,00 h 0,00 h 70 W/m 24,0 km/h (4 Bft) 96,76 %
02.11.2023 11:00 14,2 C 13,9 C 9,7 C 76 % 978,1 hPa 0,0 l/m 0,00 h 0,00 h 113 W/m 31,3 km/h (5 Bft) 97,65 %
02.11.2023 12:00 15,4 C 14,9 C 10,6 C 66 % 977,5 hPa 0,0 l/m 0,00 h 0,00 h 94 W/m 49,7 km/h (6 Bft) 95,93 %
02.11.2023 13:00 15,5 C 15,2 C 10,7 C 63 % 977,6 hPa 0,0 l/m 0,67 h 0,00 h 255 W/m 46,2 km/h (6 Bft) 97,93 %
02.11.2023 14:00 15,3 C 14,8 C 10,6 C 63 % 977,3 hPa 0,0 l/m 0,43 h 0,00 h 185 W/m 49,9 km/h (6 Bft) 96,21 %
02.11.2023 15:00 14,9 C 14,2 C 10,1 C 64 % 977,3 hPa 0,0 l/m 0,03 h 0,00 h 58 W/m 43,6 km/h (6 Bft) 97,49 %
02.11.2023 16:00 14,1 C 13,2 C 9,3 C 66 % 977,7 hPa 0,0 l/m 0,00 h 0,00 h 17 W/m 32,1 km/h (5 Bft) 97,36 %
02.11.2023 17:00 13,6 C 12,8 C 8,9 C 65 % 978,0 hPa 0,0 l/m 0,00 h 0,00 h 0 W/m 33,8 km/h (5 Bft) 98,62 %
02.11.2023 18:00 13,2 C 12,2 C 8,5 C 65 % 979,2 hPa 0,0 l/m 0,00 h 0,00 h 0 W/m 25,3 km/h (4 Bft) 96,48 %
02.11.2023 19:00 12,6 C 11,8 C 7,9 C 67 % 979,6 hPa 0,0 l/m 0,00 h 0,00 h 0 W/m 28,7 km/h (4 Bft) 97,86 %
02.11.2023 20:00 12,5 C 11,5 C 7,9 C 68 % 980,0 hPa 0,0 l/m 0,00 h 0,00 h 0 W/m 29,1 km/h (5 Bft) 97,94 %
02.11.2023 21:00 11,8 C 11,1 C 7,2 C 71 % 980,2 hPa 0,0 l/m 0,00 h 0,00 h 0 W/m 35,9 km/h (5 Bft) 95,49 %
02.11.2023 22:00 11,3 C 10,6 C 6,9 C 73 % 980,3 hPa 0,0 l/m 0,00 h 0,00 h 0 W/m 32,0 km/h (5 Bft) 97,09 %
02.11.2023 23:00 10,5 C 9,5 C 5,6 C 81 % 980,3 hPa 0,2 l/m 0,00 h 0,87 h 0 W/m 37,0 km/h (5 Bft) 99,39 %
03.11.2023 00:00 9,4 C 8,5 C 4,2 C 88 % 980,8 hPa 0,2 l/m 0,00 h 0,58 h 0 W/m 31,6 km/h (5 Bft) 98,54 %
03.11.2023 01:00 9,5 C 8,9 C 4,7 C 85 % 981,0 hPa 0,0 l/m 0,00 h 0,00 h 0 W/m 41,6 km/h (6 Bft) 99,42 %
03.11.2023 02:00 9,7 C 8,9 C 5,6 C 83 % 981,5 hPa 0,0 l/m 0,00 h 0,00 h 0 W/m 40,8 km/h (6 Bft) 98,47 %
03.11.2023 03:00 9,7 C 8,9 C 5,6 C 82 % 982,0 hPa 0,0 l/m 0,00 h 0,00 h 0 W/m 41,6 km/h (6 Bft) 97,37 %
03.11.2023 04:00 9,6 C 8,9 C 5,5 C 82 % 982,2 hPa 0,0 l/m 0,00 h 0,00 h 0 W/m 33,8 km/h (5 Bft) 98,83 %
03.11.2023 05:00 9,4 C 8,6 C 5,0 C 83 % 982,5 hPa 0,0 l/m 0,00 h 0,00 h 0 W/m 36,0 km/h (5 Bft) 99,56 %
03.11.2023 06:00 9,2 C 8,3 C 5,0 C 84 % 983,0 hPa 0,0 l/m 0,00 h 0,00 h 0 W/m 28,4 km/h (4 Bft) 97,66 %
03.11.2023 07:00 9,2 C 8,3 C 5,0 C 84 % 983,7 hPa 0,0 l/m 0,17 h 0,00 h 16 W/m 31,1 km/h (5 Bft) 99,12 %
03.11.2023 08:00 9,6 C 9,2 C 5,6 C 83 % 984,1 hPa 0,0 l/m 1,00 h 0,00 h 87 W/m 28,1 km/h (4 Bft) 99,93 %
03.11.2023 09:00 10,3 C 9,9 C 6,1 C 81 % 984,6 hPa 0,0 l/m 0,45 h 0,00 h 99 W/m 23,6 km/h (4 Bft) 96,57 %
03.11.2023 10:00 10,6 C 10,4 C 6,6 C 82 % 985,9 hPa 0,0 l/m 0,00 h 0,00 h 107 W/m 22,4 km/h (4 Bft) 98,71 %
03.11.2023 11:00 11,1 C 10,8 C 7,0 C 80 % 986,6 hPa 0,0 l/m 0,00 h 0,00 h 117 W/m 31,1 km/h (5 Bft) 95,95 %
03.11.2023 12:00 11,8 C 11,7 C 7,7 C 77 % 986,7 hPa 0,0 l/m 0,03 h 0,00 h 122 W/m 31,5 km/h (5 Bft) 97,56 %
03.11.2023 13:00 11,5 C 11,4 C 7,2 C 77 % 987,1 hPa 0,0 l/m 0,07 h 0,07 h 142 W/m 26,6 km/h (4 Bft) 96,83 %
03.11.2023 14:00 11,7 C 11,6 C 7,4 C 76 % 987,4 hPa 0,0 l/m 0,75 h 0,00 h 216 W/m 22,3 km/h (4 Bft) 96,47 %
03.11.2023 15:00 11,4 C 10,8 C 7,0 C 74 % 988,0 hPa 0,0 l/m 0,07 h 0,00 h 59 W/m 28,0 km/h (4 Bft) 94,76 %
03.11.2023 16:00 10,8 C 10,0 C 6,5 C 75 % 988,6 hPa 0,0 l/m 0,00 h 0,00 h 25 W/m 21,7 km/h (4 Bft) 93,35 %
03.11.2023 17:00 9,8 C 8,9 C 5,6 C 78 % 988,8 hPa 0,0 l/m 0,00 h 0,00 h 4 W/m 17,6 km/h (3 Bft) 95,48 %
03.11.2023 18:00 9,1 C 8,1 C 5,0 C 81 % 989,1 hPa 0,0 l/m 0,00 h 0,00 h 0 W/m 15,3 km/h (3 Bft) 97,07 %
03.11.2023 19:00 8,6 C 7,7 C 4,5 C 83 % 989,4 hPa 0,0 l/m 0,00 h 0,00 h 0 W/m 12,1 km/h (2 Bft) 98,95 %
03.11.2023 20:00 8,9 C 8,2 C 4,9 C 82 % 989,4 hPa 0,0 l/m 0,00 h 0,00 h 0 W/m 19,5 km/h (3 Bft) 96,45 %
03.11.2023 21:00 9,1 C 8,3 C 5,0 C 81 % 989,5 hPa 0,0 l/m 0,00 h 0,00 h 0 W/m 18,7 km/h (3 Bft) 97,11 %
03.11.2023 22:00 9,0 C 8,2 C 5,0 C 81 % 989,3 hPa 0,0 l/m 0,00 h 0,00 h 0 W/m 12,9 km/h (3 Bft) 97,58 %
03.11.2023 23:00 8,0 C 7,0 C 3,8 C 83 % 989,2 hPa 0,0 l/m 0,00 h 0,00 h 0 W/m 7,9 km/h (2 Bft) 96,78 %
04.11.2023 00:00 7,4 C 6,7 C 3,3 C 85 % 989,1 hPa 0,0 l/m 0,00 h 0,00 h 0 W/m 8,6 km/h (2 Bft) 97,91 %
04.11.2023 01:00 7,5 C 6,9 C 3,6 C 86 % 988,6 hPa 0,0 l/m 0,00 h 0,00 h 0 W/m 9,2 km/h (2 Bft) 97,80 %
04.11.2023 02:00 7,4 C 6,8 C 3,5 C 87 % 988,4 hPa 0,0 l/m 0,00 h 0,00 h 0 W/m 8,3 km/h (2 Bft) 98,19 %
04.11.2023 03:00 7,7 C 7,2 C 3,9 C 87 % 987,9 hPa 0,0 l/m 0,00 h 0,00 h 0 W/m 9,2 km/h (2 Bft) 97,15 %
04.11.2023 04:00 8,2 C 7,6 C 4,3 C 87 % 987,4 hPa 0,0 l/m 0,00 h 0,00 h 0 W/m 9,2 km/h (2 Bft) 97,38 %
04.11.2023 05:00 8,7 C 7,9 C 4,4 C 87 % 987,0 hPa 0,0 l/m 0,00 h 0,00 h 0 W/m 10,1 km/h (2 Bft) 97,67 %
04.11.2023 06:00 8,3 C 7,5 C 4,4 C 88 % 986,3 hPa 0,0 l/m 0,00 h 0,00 h 0 W/m 7,9 km/h (2 Bft) 96,48 %
04.11.2023 07:00 8,0 C 7,3 C 4,0 C 90 % 985,6 hPa 0,0 l/m 0,00 h 0,00 h 7 W/m 11,7 km/h (2 Bft) 98,22 %
04.11.2023 08:00 8,2 C 7,8 C 4,3 C 90 % 985,0 hPa 0,0 l/m 0,00 h 0,07 h 34 W/m 15,3 km/h (3 Bft) 98,67 %
04.11.2023 09:00 9,2 C 8,8 C 5,2 C 89 % 984,0 hPa 0,0 l/m 0,00 h 0,00 h 63 W/m 18,7 km/h (3 Bft) 94,68 %
04.11.2023 10:00 9,9 C 9,8 C 5,9 C 88 % 982,9 hPa 0,0 l/m 0,07 h 0,00 h 112 W/m 18,9 km/h (3 Bft) 99,29 %
04.11.2023 11:00 10,8 C 10,6 C 6,7 C 84 % 981,7 hPa 0,0 l/m 0,08 h 0,00 h 111 W/m 19,9 km/h (4 Bft) 95,48 %
04.11.2023 12:00 10,3 C 9,4 C 5,2 C 86 % 979,9 hPa 0,6 l/m 0,00 h 0,60 h 74 W/m 19,2 km/h (3 Bft) 97,92 %
04.11.2023 13:00 9,3 C 8,4 C 4,4 C 93 % 978,1 hPa 0,4 l/m 0,00 h 0,78 h 71 W/m 19,8 km/h (3 Bft) 97,55 %
04.11.2023 14:00 9,1 C 8,3 C 4,4 C 95 % 976,4 hPa 0,8 l/m 0,00 h 0,83 h 49 W/m 20,3 km/h (4 Bft) 95,87 %
04.11.2023 15:00 8,9 C 8,2 C 4,4 C 95 % 975,5 hPa 0,6 l/m 0,00 h 0,40 h 28 W/m 19,5 km/h (3 Bft) 95,76 %
04.11.2023 16:00 9,3 C 8,8 C 4,4 C 94 % 974,9 hPa 0,0 l/m 0,27 h 0,07 h 14 W/m 19,6 km/h (3 Bft) 97,39 %
04.11.2023 17:00 9,4 C 8,7 C 4,8 C 93 % 974,5 hPa 0,0 l/m 0,00 h 0,00 h 3 W/m 16,7 km/h (3 Bft) 96,93 %
04.11.2023 18:00 9,2 C 8,3 C 5,0 C 94 % 974,4 hPa 0,0 l/m 0,00 h 0,10 h 0 W/m 17,4 km/h (3 Bft) 97,08 %
04.11.2023 19:00 9,2 C 8,3 C 5,0 C 94 % 974,1 hPa 0,6 l/m 0,00 h 0,37 h 0 W/m 15,2 km/h (3 Bft) 97,86 %
04.11.2023 20:00 9,2 C 8,5 C 5,0 C 96 % 973,9 hPa 0,0 l/m 0,00 h 0,00 h 0 W/m 12,8 km/h (3 Bft) 97,17 %
04.11.2023 21:00 9,6 C 9,0 C 5,3 C 96 % 974,3 hPa 0,0 l/m 0,00 h 0,00 h 0 W/m 5,5 km/h (1 Bft) 95,47 %
04.11.2023 22:00 9,5 C 8,9 C 5,0 C 94 % 974,5 hPa 0,0 l/m 0,00 h 0,00 h 0 W/m 12,8 km/h (3 Bft) 98,23 %
04.11.2023 23:00 9,9 C 9,2 C 4,9 C 90 % 974,3 hPa 0,0 l/m 0,00 h 0,00 h 0 W/m 10,6 km/h (2 Bft) 97,71 %
05.11.2023 00:00 9,5 C 8,9 C 4,5 C 90 % 974,1 hPa 0,0 l/m 0,00 h 0,00 h 0 W/m 6,0 km/h (2 Bft) 94,41 %
05.11.2023 01:00 9,6 C 8,9 C 5,0 C 91 % 973,4 hPa 0,0 l/m 0,00 h 0,07 h 0 W/m 9,2 km/h (2 Bft) 97,43 %
05.11.2023 02:00 9,4 C 8,4 C 5,0 C 94 % 972,8 hPa 1,6 l/m 0,00 h 1,00 h 0 W/m 9,8 km/h (2 Bft) 98,21 %
05.11.2023 03:00 9,4 C 8,4 C 5,1 C 96 % 971,9 hPa 1,0 l/m 0,00 h 0,73 h 0 W/m 9,8 km/h (2 Bft) 95,08 %
05.11.2023 04:00 9,5 C 8,9 C 5,6 C 97 % 971,6 hPa 0,2 l/m 0,00 h 0,20 h 0 W/m 9,0 km/h (2 Bft) 97,12 %
05.11.2023 05:00 9,6 C 8,9 C 5,6 C 96 % 971,7 hPa 0,0 l/m 0,00 h 0,00 h 0 W/m 5,3 km/h (1 Bft) 96,28 %
05.11.2023 06:00 9,7 C 8,9 C 5,6 C 96 % 971,9 hPa 0,2 l/m 0,00 h 0,47 h 0 W/m 4,1 km/h (1 Bft) 94,50 %
05.11.2023 07:00 9,7 C 8,9 C 5,6 C 96 % 972,3 hPa 0,0 l/m 0,00 h 0,00 h 4 W/m 5,2 km/h (1 Bft) 97,51 %
05.11.2023 08:00 9,7 C 9,2 C 5,8 C 97 % 973,1 hPa 0,0 l/m 0,00 h 0,03 h 22 W/m 9,8 km/h (2 Bft) 98,41 %
05.11.2023 09:00 10,2 C 9,8 C 6,3 C 97 % 974,2 hPa 0,0 l/m 0,00 h 0,03 h 52 W/m 14,6 km/h (3 Bft) 96,23 %
05.11.2023 10:00 10,8 C 10,6 C 6,7 C 96 % 975,3 hPa 0,6 l/m 0,00 h 0,30 h 74 W/m 19,6 km/h (3 Bft) 98,90 %
05.11.2023 11:00 10,9 C 10,6 C 7,1 C 96 % 976,6 hPa 0,2 l/m 0,00 h 0,20 h 108 W/m 17,7 km/h (3 Bft) 96,18 %
05.11.2023 12:00 11,1 C 10,7 C 6,9 C 95 % 978,0 hPa 0,2 l/m 0,00 h 0,73 h 78 W/m 21,8 km/h (4 Bft) 97,72 %
05.11.2023 13:00 11,1 C 10,6 C 6,7 C 95 % 979,8 hPa 0,0 l/m 0,00 h 0,43 h 73 W/m 20,7 km/h (4 Bft) 97,15 %
05.11.2023 14:00 11,2 C 10,6 C 6,7 C 93 % 981,4 hPa 0,0 l/m 0,00 h 0,13 h 44 W/m 20,2 km/h (4 Bft) 98,81 %
05.11.2023 15:00 10,9 C 10,2 C 6,2 C 92 % 983,3 hPa 0,2 l/m 0,00 h 0,57 h 23 W/m 23,6 km/h (4 Bft) 96,94 %
05.11.2023 16:00 10,3 C 9,4 C 6,1 C 94 % 985,1 hPa 0,4 l/m 0,00 h 0,48 h 12 W/m 21,0 km/h (4 Bft) 96,28 %
05.11.2023 17:00 10,5 C 9,9 C 5,7 C 91 % 986,9 hPa 0,0 l/m 0,00 h 0,17 h 0 W/m 20,6 km/h (4 Bft) 99,16 %
05.11.2023 18:00 10,6 C 9,9 C 5,1 C 86 % 988,7 hPa 0,0 l/m 0,00 h 0,00 h 0 W/m 20,1 km/h (4 Bft) 95,94 %
05.11.2023 19:00 10,3 C 9,4 C 5,4 C 86 % 990,1 hPa 0,0 l/m 0,00 h 0,00 h 0 W/m 18,9 km/h (3 Bft) 95,01 %
05.11.2023 20:00 10,1 C 9,4 C 6,1 C 87 % 991,2 hPa 0,0 l/m 0,00 h 0,00 h 0 W/m 20,4 km/h (4 Bft) 96,80 %
05.11.2023 21:00 10,0 C 9,3 C 6,1 C 88 % 992,5 hPa 0,0 l/m 0,00 h 0,00 h 0 W/m 17,9 km/h (3 Bft) 97,33 %
05.11.2023 22:00 9,9 C 9,1 C 6,1 C 90 % 993,5 hPa 0,0 l/m 0,00 h 0,00 h 0 W/m 19,4 km/h (3 Bft) 96,39 %
05.11.2023 23:00 9,8 C 9,0 C 5,8 C 90 % 994,3 hPa 0,0 l/m 0,00 h 0,00 h 0 W/m 21,8 km/h (4 Bft) 98,07 %
Min-Datum _ 04.11.23 03.11.23 03.11.23 02.11.23 05.11.23 - - - - 30.10.23 05.11.23
_ Min-Zeit 00:54 23:24 23:38 14:52 04:14 - - - - 00:48 00:30
Minimum _ 7,2 C 6,7 C 3,3 C 61 % 971,5 hPa - - - - 0,0 km/h (0 Bft) 37,50 %
Max-Datum _ 02.11.23 30.10.23 30.10.23 30.10.23 31.10.23 01.11.23 31.10.23 01.11.23 02.11.23 02.11.23 30.10.23
_ Max-Zeit 13:30 11:56 11:58 22:00 19:26 05:00 15:10 04:04 13:30 12:46 00:00
Maximum _ 15,7 C 15,6 C 11,1 C 99 % 1006,3 hPa 1,8 l/m 0,08 h 0,08 h 426 W/m 90,1 km/h
SW (10 Bft)
100,00 %
Durchschnitt _ 11,1 C 10,5 C 6,9 C 88 % 990,1 hPa #18,8 l/m #5:54 h #20:18 h 76 W/m 17,1 km/h (3 Bft) 97,32 %
© 2023 W. Hausmann